Time;durP1;ratioP1;P1;durP2;ratioP2;P2;SDS_P1;SDS_P2;PMS_P1;PMS_P2;Temp;Humidity;BMP_temperature;BMP_pressure;BME280_temperature;BME280_humidity;BME280_pressure;Samples;Min_cycle;Max_cycle;Signal;HPM_P1;HPM_P2
2023/01/31 00:01:13;;;;;;;28.13;3.90;;;6.40;99.90;;;;;;4991831;28;20060;-81
2023/01/31 00:03:42;;;;;;;16.42;3.55;;;6.40;99.90;;;;;;4993237;28;20054;-81
2023/01/31 00:06:10;;;;;;;22.83;3.50;;;6.30;99.90;;;;;;4992820;28;20149;-79
2023/01/31 00:08:36;;;;;;;;;;;6.30;99.90;;;;;;4993217;28;20041;-79
2023/01/31 00:11:02;;;;;;;32.58;2.92;;;6.10;99.90;;;;;;4990748;28;20012;-80
2023/01/31 00:13:28;;;;;;;33.22;3.78;;;6.10;99.90;;;;;;4993726;28;20031;-81
2023/01/31 00:16:03;;;;;;;23.00;2.60;;;6.20;99.90;;;;;;4984369;28;20149;-80
2023/01/31 00:18:29;;;;;;;28.13;3.30;;;6.20;99.90;;;;;;4992227;28;20037;-78
2023/01/31 00:20:55;;;;;;;26.98;3.40;;;6.30;99.90;;;;;;4992806;28;20042;-79
2023/01/31 00:23:21;;;;;;;29.50;3.53;;;6.20;99.90;;;;;;4991877;28;20034;-78
2023/01/31 00:25:50;;;;;;;31.05;3.97;;;6.10;99.90;;;;;;4991232;28;20146;-79
2023/01/31 00:28:15;;;;;;;25.42;2.95;;;6.30;99.90;;;;;;4992494;28;20030;-78
2023/01/31 00:30:41;;;;;;;19.15;2.83;;;6.20;99.90;;;;;;4992259;28;20072;-80
2023/01/31 00:33:06;;;;;;;37.33;3.92;;;6.30;99.90;;;;;;4992746;28;20393;-79
2023/01/31 00:35:32;;;;;;;22.73;3.10;;;6.20;99.90;;;;;;4991265;28;20038;-78
2023/01/31 00:37:59;;;;;;;25.45;2.85;;;6.40;99.90;;;;;;4992063;28;20092;-80
2023/01/31 00:40:24;;;;;;;12.02;2.30;;;6.20;99.90;;;;;;4992380;28;20045;-79
2023/01/31 00:42:50;;;;;;;22.63;2.90;;;6.30;99.90;;;;;;4984036;28;20034;-79
2023/01/31 00:45:16;;;;;;;18.75;2.97;;;6.30;99.90;;;;;;4991589;28;20054;-80
2023/01/31 00:47:42;;;;;;;8.70;2.33;;;6.30;99.90;;;;;;4991153;28;20460;-79
2023/01/31 00:50:13;;;;;;;13.55;1.80;;;6.40;99.90;;;;;;4992190;28;20018;-80
2023/01/31 00:52:38;;;;;;;9.35;2.05;;;6.50;99.90;;;;;;4992143;28;20045;-79
2023/01/31 00:55:04;;;;;;;11.60;2.05;;;6.50;99.90;;;;;;4991822;28;20019;-80
2023/01/31 00:57:30;;;;;;;12.43;1.90;;;6.40;99.90;;;;;;4992319;28;20110;-80
2023/01/31 00:59:57;;;;;;;11.43;1.58;;;6.50;99.90;;;;;;4991139;28;20105;-80
2023/01/31 01:02:26;;;;;;;16.60;2.15;;;6.50;99.90;;;;;;4991257;28;20030;-80
2023/01/31 01:04:51;;;;;;;20.15;2.50;;;6.40;99.90;;;;;;4992088;28;20030;-80
2023/01/31 01:07:17;;;;;;;19.63;2.17;;;6.30;99.90;;;;;;4990959;28;20543;-81
2023/01/31 01:09:42;;;;;;;22.02;3.35;;;6.30;99.90;;;;;;4992826;28;20050;-80
2023/01/31 01:12:08;;;;;;;19.17;2.78;;;6.40;99.90;;;;;;4988151;28;20038;-80
2023/01/31 01:14:34;;;;;;;15.40;2.17;;;6.40;99.90;;;;;;4987648;28;20053;-80
2023/01/31 01:16:59;;;;;;;20.77;2.83;;;6.40;99.90;;;;;;4992759;28;20042;-79
2023/01/31 01:19:25;;;;;;;21.77;2.22;;;6.40;99.90;;;;;;4992589;28;20483;-79
2023/01/31 01:21:54;;;;;;;21.52;2.70;;;6.30;99.90;;;;;;4992200;28;20029;-80
2023/01/31 01:24:19;;;;;;;14.10;2.55;;;6.40;99.90;;;;;;4992268;28;20030;-79
2023/01/31 01:26:45;;;;;;;21.58;2.85;;;6.40;99.90;;;;;;4991676;28;20038;-79
2023/01/31 01:29:12;;;;;;;25.95;2.22;;;6.40;99.90;;;;;;4991583;28;20529;-79
2023/01/31 01:31:39;;;;;;;26.55;3.15;;;6.40;99.90;;;;;;4990583;28;20372;-79
2023/01/31 01:34:07;;;;;;;21.60;2.40;;;6.40;99.90;;;;;;4991091;28;20098;-80
2023/01/31 01:36:35;;;;;;;31.73;3.53;;;6.40;99.90;;;;;;4990815;28;20022;-79
2023/01/31 01:39:02;;;;;;;19.55;2.90;;;6.30;99.90;;;;;;4991992;28;20035;-81
2023/01/31 01:41:29;;;;;;;16.98;2.45;;;6.30;99.90;;;;;;4991529;28;20039;-78
2023/01/31 01:43:57;;;;;;;19.92;3.40;;;6.40;99.90;;;;;;4991328;28;20049;-78
2023/01/31 01:46:34;;;;;;;26.30;3.17;;;6.30;99.90;;;;;;4990710;28;20038;-79
2023/01/31 01:49:15;;;;;;;22.83;2.95;;;6.20;99.90;;;;;;4994454;28;20117;-81
2023/01/31 01:51:43;;;;;;;22.02;3.22;;;6.20;99.90;;;;;;4996995;28;20084;-80
2023/01/31 01:54:15;;;;;;;31.10;2.88;;;6.20;99.90;;;;;;4995777;28;20060;-80
2023/01/31 01:56:45;;;;;;;22.10;2.58;;;6.10;99.90;;;;;;4994289;28;20064;-79
2023/01/31 01:59:25;;;;;;;28.15;4.03;;;6.00;99.90;;;;;;4994889;28;20043;-79
2023/01/31 02:01:54;;;;;;;22.98;2.85;;;6.10;99.90;;;;;;4994972;28;20299;-78
2023/01/31 02:04:24;;;;;;;31.92;3.40;;;6.10;99.90;;;;;;4994983;28;20034;-78
2023/01/31 02:06:50;;;;;;;34.22;3.70;;;6.20;99.90;;;;;;4994827;28;20027;-79
2023/01/31 02:09:38;;;;;;;39.33;3.45;;;6.10;99.90;;;;;;4995291;28;20022;-79
2023/01/31 02:12:13;;;;;;;30.17;2.92;;;6.10;99.90;;;;;;4995335;28;20026;-79
2023/01/31 02:14:40;;;;;;;12.70;2.45;;;6.00;99.90;;;;;;4994766;28;20034;-78
2023/01/31 02:17:12;;;;;;;27.87;3.37;;;6.10;99.90;;;;;;4993772;28;20034;-79
2023/01/31 02:20:13;;;;;;;14.68;2.10;;;6.10;99.90;;;;;;4995034;28;20065;-79
2023/01/31 02:23:18;;;;;;;21.83;2.63;;;6.10;99.90;;;;;;4995167;28;20034;-80
2023/01/31 02:26:22;;;;;;;23.00;2.90;;;6.20;99.90;;;;;;4996087;28;20038;-80
2023/01/31 02:29:06;;;;;;;19.77;3.22;;;6.20;99.90;;;;;;4994786;28;20047;-81
2023/01/31 02:32:16;;;;;;;27.67;2.90;;;6.10;99.90;;;;;;4994608;28;20125;-79
2023/01/31 02:34:53;;;;;;;25.30;3.88;;;6.20;99.90;;;;;;4994389;28;20069;-80
2023/01/31 02:37:50;;;;;;;18.52;4.47;;;6.20;99.90;;;;;;4993292;28;20428;-79
2023/01/31 02:40:54;;;;;;;18.83;2.30;;;6.20;99.90;;;;;;4994556;28;20050;-79
2023/01/31 02:44:57;;;;;;;19.38;2.60;;;6.30;99.90;;;;;;4993736;28;20027;-79
2023/01/31 02:46:23;;;;;;;25.85;2.65;;;6.30;99.90;;;;;;4994076;28;20038;-78
2023/01/31 02:48:55;;;;;;;27.35;3.33;;;6.40;99.90;;;;;;4993595;28;20030;-79
2023/01/31 02:52:14;;;;;;;16.10;2.35;;;6.20;99.90;;;;;;4995069;28;20050;-78
2023/01/31 02:56:13;;;;;;;22.95;2.53;;;6.40;99.90;;;;;;4994778;28;20039;-78
2023/01/31 02:57:21;;;;;;;23.95;3.10;;;6.40;99.90;;;;;;4994717;28;20030;-77
2023/01/31 02:59:47;;;;;;;25.88;2.53;;;6.50;99.90;;;;;;4993396;28;20149;-79
2023/01/31 03:02:13;;;;;;;16.33;2.47;;;6.50;99.90;;;;;;4994155;28;20026;-77
2023/01/31 03:04:40;;;;;;;24.33;2.83;;;6.30;99.90;;;;;;4994280;28;20374;-78
2023/01/31 03:07:12;;;;;;;28.08;3.15;;;6.40;99.90;;;;;;4992795;28;20045;-79
2023/01/31 03:09:50;;;;;;;19.67;3.42;;;6.50;99.90;;;;;;4992873;28;20031;-77
2023/01/31 03:12:39;;;;;;;26.10;3.20;;;6.50;99.90;;;;;;4992976;28;20118;-78
2023/01/31 03:15:23;;;;;;;24.52;3.17;;;6.50;99.90;;;;;;4993135;28;20034;-79
2023/01/31 03:18:07;;;;;;;23.92;3.13;;;6.40;99.90;;;;;;4993586;28;20031;-77
2023/01/31 03:20:57;;;;;;;26.35;3.08;;;6.40;99.90;;;;;;4993612;28;20031;-78
2023/01/31 03:23:28;;;;;;;22.60;3.05;;;6.40;99.90;;;;;;4992422;28;20026;-78
2023/01/31 03:25:57;;;;;;;19.25;2.75;;;6.30;99.90;;;;;;4993611;28;20042;-78
2023/01/31 03:28:28;;;;;;;35.60;3.92;;;6.30;99.90;;;;;;4993507;28;20537;-79
2023/01/31 03:31:19;;;;;;;24.00;2.55;;;6.30;99.90;;;;;;4993542;28;20437;-78
2023/01/31 03:33:50;;;;;;;24.75;2.92;;;6.30;99.90;;;;;;4992374;28;20027;-78
2023/01/31 03:36:39;;;;;;;22.73;2.53;;;6.30;99.90;;;;;;4992623;28;20022;-78
2023/01/31 03:39:23;;;;;;;24.05;2.55;;;6.30;99.90;;;;;;4993284;28;20048;-79
2023/01/31 03:42:06;;;;;;;17.35;2.47;;;6.40;99.90;;;;;;4992304;28;20334;-79
2023/01/31 03:45:05;;;;;;;20.23;3.30;;;6.20;99.90;;;;;;4993218;28;20112;-79
2023/01/31 03:47:36;;;;;;;29.38;2.67;;;6.10;99.90;;;;;;4992323;28;20125;-79
2023/01/31 03:50:07;;;;;;;24.67;2.60;;;6.10;99.90;;;;;;4993103;28;20109;-80
2023/01/31 03:52:41;;;;;;;18.23;2.67;;;6.20;99.90;;;;;;4993104;28;20404;-79
2023/01/31 03:55:40;;;;;;;19.90;2.75;;;6.20;99.90;;;;;;4992842;28;20152;-79
2023/01/31 03:58:07;;;;;;;23.92;2.78;;;6.20;99.90;;;;;;4991876;28;20045;-79
2023/01/31 04:00:35;;;;;;;27.50;2.60;;;6.20;99.90;;;;;;4993663;28;20026;-80
2023/01/31 04:03:13;;;;;;;23.75;2.80;;;6.20;99.90;;;;;;4992888;28;20041;-80
2023/01/31 04:05:39;;;;;;;25.80;2.78;;;6.20;99.90;;;;;;4991941;28;20413;-79
2023/01/31 04:08:05;;;;;;;14.25;2.28;;;6.20;99.90;;;;;;4992819;28;20475;-78
2023/01/31 04:10:31;;;;;;;21.30;2.47;;;6.20;99.90;;;;;;4992467;28;20037;-79
2023/01/31 04:12:57;;;;;;;22.35;2.90;;;6.20;99.90;;;;;;4992345;28;20424;-78
2023/01/31 04:15:22;;;;;;;23.67;2.45;;;6.10;99.90;;;;;;4993046;28;20058;-78
2023/01/31 04:17:48;;;;;;;19.65;3.10;;;6.00;99.90;;;;;;4992649;28;20503;-78
2023/01/31 04:20:15;;;;;;;27.95;2.67;;;6.00;99.90;;;;;;4992560;28;20062;-79
2023/01/31 04:22:41;;;;;;;14.68;1.98;;;6.10;99.90;;;;;;4991595;28;20423;-78
2023/01/31 04:25:07;;;;;;;21.52;3.05;;;6.00;99.90;;;;;;4991242;28;20135;-79
2023/01/31 04:27:33;;;;;;;16.05;2.97;;;6.00;99.90;;;;;;4992608;28;20050;-78
2023/01/31 04:29:58;;;;;;;33.33;3.08;;;6.00;99.90;;;;;;4992500;28;20378;-79
2023/01/31 04:32:24;;;;;;;28.45;3.70;;;6.00;99.90;;;;;;4992512;28;20050;-78
2023/01/31 04:34:49;;;;;;;19.63;2.10;;;5.90;99.90;;;;;;4992254;28;20109;-78
2023/01/31 04:37:15;;;;;;;13.40;1.98;;;6.00;99.90;;;;;;4991977;28;20030;-78
2023/01/31 04:39:41;;;;;;;28.30;2.80;;;5.80;99.90;;;;;;4992343;28;20027;-79
2023/01/31 04:42:07;;;;;;;16.33;2.47;;;5.80;99.90;;;;;;4990906;28;20456;-78
2023/01/31 04:44:32;;;;;;;19.75;3.50;;;5.90;99.90;;;;;;4991830;28;20058;-78
2023/01/31 04:46:58;;;;;;;23.08;2.90;;;6.00;99.90;;;;;;4990676;28;20077;-78
2023/01/31 04:49:24;;;;;;;23.45;2.63;;;5.90;99.90;;;;;;4991782;28;20035;-79
2023/01/31 04:51:50;;;;;;;23.20;3.35;;;5.90;99.90;;;;;;4991631;28;20037;-78
2023/01/31 04:54:15;;;;;;;24.20;2.85;;;6.00;99.90;;;;;;4990998;28;20037;-78
2023/01/31 04:56:41;;;;;;;22.25;2.17;;;6.00;99.90;;;;;;4990442;28;20105;-78
2023/01/31 04:59:07;;;;;;;16.52;2.90;;;6.10;99.90;;;;;;4991619;28;20114;-78
2023/01/31 05:01:32;;;;;;;28.55;3.33;;;6.00;99.90;;;;;;4990399;28;20038;-78
2023/01/31 05:03:58;;;;;;;17.42;4.22;;;6.00;99.90;;;;;;4991195;28;20033;-78
2023/01/31 05:06:23;;;;;;;24.98;3.05;;;6.10;99.90;;;;;;4991873;28;20391;-78
2023/01/31 05:08:51;;;;;;;15.38;2.58;;;6.10;99.90;;;;;;4991390;28;20023;-79
2023/01/31 05:11:17;;;;;;;;;;;6.10;99.90;;;;;;4992222;28;20038;-79
2023/01/31 05:13:44;;;;;;;13.95;2.70;;;6.10;99.90;;;;;;4991464;28;19910;-77
2023/01/31 05:16:10;;;;;;;17.65;2.40;;;5.90;99.90;;;;;;4991174;28;20034;-78
2023/01/31 05:18:37;;;;;;;15.98;2.70;;;6.00;99.90;;;;;;4991890;28;20057;-79
2023/01/31 05:21:04;;;;;;;17.02;2.00;;;6.00;99.90;;;;;;4990422;28;20022;-79
2023/01/31 05:23:31;;;;;;;26.55;2.58;;;6.00;99.90;;;;;;4991382;28;20035;-78
2023/01/31 05:25:57;;;;;;;23.52;2.80;;;6.10;99.90;;;;;;4991294;28;20045;-80
2023/01/31 05:28:24;;;;;;;19.15;2.55;;;6.00;99.90;;;;;;4990244;28;20374;-79
2023/01/31 05:31:00;;;;;;;22.23;3.90;;;6.10;99.90;;;;;;4989916;28;20121;-80
2023/01/31 05:33:26;;;;;;;18.40;3.13;;;6.00;99.90;;;;;;4990656;28;20020;-80
2023/01/31 05:35:52;;;;;;;16.77;1.98;;;6.10;99.90;;;;;;4991426;28;20489;-79
2023/01/31 05:38:18;;;;;;;13.10;2.35;;;6.10;99.90;;;;;;4990338;28;20122;-78
2023/01/31 05:40:43;;;;;;;17.38;3.08;;;6.20;99.90;;;;;;4991034;28;20034;-78
2023/01/31 05:43:09;;;;;;;22.02;2.60;;;6.20;99.90;;;;;;4990186;28;20144;-79
2023/01/31 05:45:34;;;;;;;21.95;3.22;;;6.10;99.90;;;;;;4991923;28;20469;-79
2023/01/31 05:48:00;;;;;;;14.02;2.22;;;6.10;99.90;;;;;;4991533;28;20027;-80
2023/01/31 05:50:26;;;;;;;28.40;2.80;;;6.20;99.90;;;;;;4991934;28;20125;-80
2023/01/31 05:53:01;;;;;;;22.25;2.55;;;6.30;99.90;;;;;;4990699;28;20368;-79
2023/01/31 05:55:27;;;;;;;15.77;3.05;;;6.20;99.90;;;;;;4990238;28;20022;-79
2023/01/31 05:57:53;;;;;;;11.43;1.75;;;6.30;99.90;;;;;;4991291;28;20053;-79
2023/01/31 06:00:19;;;;;;;18.73;2.38;;;6.20;99.90;;;;;;4992167;28;20069;-78
2023/01/31 06:02:46;;;;;;;25.10;2.97;;;6.40;99.90;;;;;;4991808;28;20042;-78
2023/01/31 06:05:13;;;;;;;17.85;2.50;;;6.50;99.90;;;;;;4990532;28;20054;-79
2023/01/31 06:07:39;;;;;;;22.35;2.97;;;6.50;99.90;;;;;;4991777;28;20108;-80
2023/01/31 06:10:07;;;;;;;25.50;3.28;;;6.50;99.90;;;;;;4990539;28;20918;-80
2023/01/31 06:12:33;;;;;;;14.90;2.25;;;6.60;99.90;;;;;;4991710;28;20026;-79
2023/01/31 06:14:59;;;;;;;16.63;3.28;;;6.60;99.90;;;;;;4991653;28;20468;-79
2023/01/31 06:17:25;;;;;;;18.70;2.40;;;6.70;99.90;;;;;;4991685;28;20049;-79
2023/01/31 06:19:51;;;;;;;26.60;3.53;;;6.70;99.90;;;;;;4990459;28;20034;-79
2023/01/31 06:22:18;;;;;;;15.73;2.50;;;6.60;99.90;;;;;;4991144;28;20061;-80
2023/01/31 06:24:43;;;;;;;18.70;2.35;;;6.70;99.90;;;;;;4990250;28;20100;-79
2023/01/31 06:27:09;;;;;;;17.90;4.90;;;6.70;99.90;;;;;;4990860;28;20055;-79
2023/01/31 06:29:35;;;;;;;20.83;2.40;;;6.70;99.90;;;;;;4990932;28;20030;-78
2023/01/31 06:32:01;;;;;;;15.02;2.72;;;6.80;99.90;;;;;;4990858;28;20042;-78
2023/01/31 06:34:27;;;;;;;22.75;2.97;;;6.80;99.90;;;;;;4992951;28;20373;-78
2023/01/31 06:36:52;;;;;;;23.58;2.92;;;6.80;99.90;;;;;;4994434;28;20109;-78
2023/01/31 06:39:18;;;;;;;17.98;2.67;;;6.90;99.90;;;;;;4995032;28;20165;-78
2023/01/31 06:41:43;;;;;;;18.70;2.47;;;6.90;99.90;;;;;;4994781;28;20042;-79
2023/01/31 06:44:10;;;;;;;19.98;2.67;;;6.90;99.90;;;;;;4994226;28;20353;-80
2023/01/31 06:46:36;;;;;;;20.38;3.03;;;6.90;99.90;;;;;;4993283;28;20042;-79
2023/01/31 06:49:02;;;;;;;22.60;2.63;;;6.90;99.90;;;;;;4994267;28;20040;-81
2023/01/31 06:51:27;;;;;;;24.30;2.85;;;7.00;99.90;;;;;;4993802;28;20472;-79
2023/01/31 06:53:55;;;;;;;21.33;3.25;;;6.80;99.90;;;;;;4994217;28;20543;-79
2023/01/31 06:56:21;;;;;;;25.40;2.97;;;6.90;99.90;;;;;;4994319;28;20507;-78
2023/01/31 06:58:46;;;;;;;22.77;2.78;;;6.90;99.90;;;;;;4993926;28;20030;-80
2023/01/31 07:01:13;;;;;;;23.00;3.00;;;7.00;99.90;;;;;;4994064;28;20031;-81
2023/01/31 07:03:39;;;;;;;20.58;2.38;;;7.00;99.90;;;;;;4994777;28;20075;-80
2023/01/31 07:06:06;;;;;;;20.02;3.35;;;7.00;99.90;;;;;;4995072;28;20030;-81
2023/01/31 07:08:32;;;;;;;22.50;3.03;;;7.10;99.90;;;;;;4994659;28;20034;-81
2023/01/31 07:11:00;;;;;;;18.83;3.05;;;7.10;99.90;;;;;;4994170;28;20049;-80
2023/01/31 07:13:27;;;;;;;;;;;7.10;99.90;;;;;;4994182;28;20534;-82
2023/01/31 07:15:53;;;;;;;20.30;3.60;;;7.10;99.90;;;;;;4993464;28;19913;-79
2023/01/31 07:18:18;;;;;;;17.65;3.40;;;7.00;99.90;;;;;;4993942;28;20137;-79
2023/01/31 07:20:44;;;;;;;15.52;3.95;;;7.10;99.90;;;;;;4992936;28;20034;-82
2023/01/31 07:23:10;;;;;;;23.63;4.22;;;7.20;99.90;;;;;;4994427;28;20026;-82
2023/01/31 07:25:35;;;;;;;30.17;4.15;;;7.20;99.90;;;;;;4994206;28;20037;-82
2023/01/31 07:28:02;;;;;;;23.45;3.67;;;7.20;99.90;;;;;;4993484;28;20397;-81
2023/01/31 07:30:28;;;;;;;25.17;3.55;;;7.10;99.90;;;;;;4994336;28;20451;-81
2023/01/31 07:32:53;;;;;;;16.17;3.42;;;7.20;99.90;;;;;;4993562;28;20030;-78
2023/01/31 07:35:20;;;;;;;25.77;4.22;;;7.20;99.90;;;;;;4993289;28;20042;-78
2023/01/31 07:37:45;;;;;;;27.02;4.63;;;7.20;99.90;;;;;;4998955;28;20123;-82
2023/01/31 07:40:13;;;;;;;26.58;4.47;;;7.30;99.90;;;;;;5011755;28;20057;-80
2023/01/31 07:42:40;;;;;;;26.70;4.35;;;7.40;99.90;;;;;;5014283;28;20558;-83
2023/01/31 07:45:09;;;;;;;22.50;3.53;;;7.40;99.90;;;;;;5012711;28;20038;-83
2023/01/31 07:47:35;;;;;;;29.25;4.43;;;7.40;99.90;;;;;;5014295;28;20286;-81
2023/01/31 07:50:01;;;;;;;15.05;3.45;;;7.40;99.90;;;;;;5015068;28;20419;-86
2023/01/31 07:52:26;;;;;;;25.92;3.75;;;7.40;99.90;;;;;;5013865;28;20084;-87
2023/01/31 07:54:52;;;;;;;27.45;4.10;;;7.50;99.90;;;;;;5013688;28;20025;-80
2023/01/31 07:57:17;;;;;;;20.55;3.80;;;7.50;99.90;;;;;;5014322;28;20116;-82
2023/01/31 07:59:44;;;;;;;17.63;4.22;;;7.60;99.90;;;;;;5013853;28;20025;-82
2023/01/31 08:04:59;;;;;;;23.33;4.13;;;7.60;99.90;;;;;;5014346;28;20537;-82
2023/01/31 08:07:26;;;;;;;17.92;4.30;;;7.50;99.90;;;;;;5014070;28;20038;-82
2023/01/31 08:09:51;;;;;;;21.08;4.22;;;7.50;99.90;;;;;;5012708;28;20049;-82
2023/01/31 08:12:17;;;;;;;23.58;4.68;;;7.60;99.90;;;;;;5013461;28;20026;-81
2023/01/31 08:14:43;;;;;;;27.30;4.80;;;7.70;99.90;;;;;;5014268;28;20371;-86
2023/01/31 08:17:09;;;;;;;19.55;4.22;;;7.80;99.90;;;;;;5015221;28;20422;-90
2023/01/31 08:19:35;;;;;;;14.23;3.95;;;7.80;99.90;;;;;;5015210;28;20045;-88
2023/01/31 08:22:03;;;;;;;28.02;5.20;;;7.70;99.90;;;;;;5015044;28;20026;-90
2023/01/31 08:24:29;;;;;;;19.00;4.00;;;7.70;99.90;;;;;;5016523;28;20084;-88
2023/01/31 08:26:56;;;;;;;19.95;4.10;;;7.80;99.90;;;;;;5018635;28;21051;-88
2023/01/31 08:29:23;;;;;;;20.77;4.00;;;7.90;99.90;;;;;;5017458;28;20065;-87
2023/01/31 08:31:49;;;;;;;36.38;5.28;;;7.90;99.90;;;;;;5015475;28;20512;-88
2023/01/31 08:34:15;;;;;;;26.10;4.35;;;8.00;99.90;;;;;;5015276;28;20455;-90
2023/01/31 08:36:42;;;;;;;19.20;4.45;;;7.90;99.90;;;;;;5014359;28;20277;-88
2023/01/31 08:39:09;;;;;;;21.08;4.95;;;7.70;99.90;;;;;;5014825;28;20444;-87
2023/01/31 08:41:36;;;;;;;25.77;5.35;;;7.70;99.90;;;;;;5002370;28;20030;-82
2023/01/31 08:44:03;;;;;;;34.63;5.47;;;7.70;99.90;;;;;;4994772;28;20536;-80
2023/01/31 08:46:31;;;;;;;29.20;5.10;;;7.60;99.90;;;;;;4994751;28;20046;-79
2023/01/31 08:48:58;;;;;;;28.05;4.90;;;7.70;99.90;;;;;;4994511;28;20404;-81
2023/01/31 08:51:24;;;;;;;22.48;4.78;;;7.80;99.90;;;;;;4995053;28;20053;-81
2023/01/31 08:53:50;;;;;;;20.17;4.30;;;7.90;99.90;;;;;;4994842;28;20544;-86
2023/01/31 08:56:16;;;;;;;22.42;5.82;;;7.90;99.90;;;;;;4993950;28;20114;-89
2023/01/31 08:58:43;;;;;;;27.38;4.97;;;7.90;99.90;;;;;;4996018;28;20061;-83
2023/01/31 09:01:15;;;;;;;17.30;4.47;;;7.90;99.90;;;;;;4994971;28;20030;-86
2023/01/31 09:03:41;;;;;;;21.30;5.15;;;7.90;99.90;;;;;;4995291;28;20023;-84
2023/01/31 09:06:12;;;;;;;23.55;4.28;;;8.00;99.90;;;;;;4994211;28;20461;-85
2023/01/31 09:08:38;;;;;;;19.60;5.40;;;8.00;99.90;;;;;;4994834;28;20365;-84
2023/01/31 09:11:04;;;;;;;20.20;5.13;;;8.00;99.90;;;;;;4993105;28;20030;-84
2023/01/31 09:13:30;;;;;;;25.20;5.53;;;7.90;99.90;;;;;;4994091;28;20030;-85
2023/01/31 09:16:00;;;;;;;24.48;6.22;;;7.90;99.90;;;;;;4995737;28;20045;-88
2023/01/31 09:18:26;;;;;;;34.63;5.65;;;8.00;99.90;;;;;;4996523;28;20027;-86
2023/01/31 09:20:52;;;;;;;27.42;4.85;;;8.00;99.90;;;;;;4995762;28;20041;-86
2023/01/31 09:23:18;;;;;;;27.50;5.43;;;8.00;99.90;;;;;;4994593;28;20035;-88
2023/01/31 09:25:53;;;;;;;19.98;5.47;;;8.20;99.90;;;;;;4993803;28;20042;-82
2023/01/31 09:28:19;;;;;;;20.58;5.30;;;8.00;99.90;;;;;;4994234;28;20042;-85
2023/01/31 09:30:46;;;;;;;19.23;5.77;;;7.90;99.90;;;;;;4993052;28;20054;-87
2023/01/31 09:33:12;;;;;;;22.67;6.20;;;7.80;99.90;;;;;;4993936;28;20042;-88
2023/01/31 09:35:38;;;;;;;24.77;6.18;;;7.80;99.90;;;;;;4995032;28;20053;-87
2023/01/31 09:38:03;;;;;;;29.52;6.97;;;7.60;99.90;;;;;;4995208;28;20101;-85
2023/01/31 09:40:32;;;;;;;26.73;6.55;;;7.60;99.90;;;;;;4993892;28;20030;-84
2023/01/31 09:43:01;;;;;;;16.48;5.32;;;7.60;99.90;;;;;;4994255;28;20030;-89
2023/01/31 09:45:36;;;;;;;24.75;5.95;;;7.70;99.90;;;;;;4996115;28;20026;-87
2023/01/31 09:48:05;;;;;;;25.10;5.35;;;7.60;99.90;;;;;;4994609;28;20378;-88
2023/01/31 09:50:34;;;;;;;15.20;6.32;;;7.60;99.90;;;;;;4994261;28;20042;-88
2023/01/31 09:53:00;;;;;;;23.52;6.47;;;7.60;99.90;;;;;;4994413;28;20026;-86
2023/01/31 09:55:48;;;;;;;16.58;5.70;;;7.40;99.90;;;;;;4994152;28;20030;-86
2023/01/31 09:58:26;;;;;;;20.77;6.05;;;7.30;99.90;;;;;;4994979;28;20109;-86
2023/01/31 10:01:09;;;;;;;20.85;6.57;;;7.50;99.90;;;;;;4993206;28;20091;-85
2023/01/31 10:03:40;;;;;;;23.40;6.50;;;7.40;99.90;;;;;;4993594;28;20018;-83
2023/01/31 10:06:23;;;;;;;22.17;5.53;;;7.40;99.90;;;;;;4993427;28;20097;-86
2023/01/31 10:08:54;;;;;;;16.63;6.03;;;7.50;99.90;;;;;;4996250;28;20092;-87
2023/01/31 10:11:42;;;;;;;22.65;5.90;;;7.60;99.90;;;;;;4998576;28;20035;-84
2023/01/31 10:14:33;;;;;;;17.10;5.47;;;7.60;99.90;;;;;;4998607;28;20046;-91
2023/01/31 10:17:14;;;;;;;12.80;4.97;;;7.60;99.90;;;;;;4998758;28;20424;-92
2023/01/31 10:19:49;;;;;;;18.23;5.43;;;7.50;99.90;;;;;;4999462;28;20040;-88
2023/01/31 10:22:48;;;;;;;17.13;5.07;;;7.50;99.90;;;;;;4998470;28;20030;-89
2023/01/31 10:25:26;;;;;;;20.63;6.40;;;7.50;99.90;;;;;;4999449;28;20030;-90
2023/01/31 10:28:02;;;;;;;15.45;4.63;;;7.70;99.90;;;;;;4997983;28;20035;-87
2023/01/31 10:30:51;;;;;;;14.30;5.00;;;7.40;99.90;;;;;;4999896;28;20425;-87
2023/01/31 10:33:36;;;;;;;16.35;4.70;;;7.50;99.90;;;;;;4999264;28;20030;-90
2023/01/31 10:36:10;;;;;;;15.70;4.03;;;7.50;99.90;;;;;;4999147;28;20105;-88
2023/01/31 10:39:09;;;;;;;18.55;4.45;;;7.60;99.90;;;;;;4998602;28;20054;-89
2023/01/31 10:42:01;;;;;;;11.48;4.05;;;7.50;99.90;;;;;;4998019;28;20034;-87
2023/01/31 10:44:33;;;;;;;18.65;4.88;;;7.50;99.90;;;;;;4996783;28;20057;-87
2023/01/31 10:46:59;;;;;;;14.50;4.50;;;7.60;99.90;;;;;;4999133;28;20046;-88
2023/01/31 10:49:27;;;;;;;19.90;6.85;;;7.50;99.90;;;;;;4998541;28;20048;-91
2023/01/31 10:52:03;;;;;;;;;;;7.50;99.90;;;;;;4999548;28;20026;-87
2023/01/31 10:54:52;;;;;;;17.08;5.03;;;7.70;99.90;;;;;;4999394;28;19927;-90
2023/01/31 10:57:18;;;;;;;21.75;4.80;;;7.50;99.90;;;;;;4996812;28;20042;-89
2023/01/31 10:59:47;;;;;;;16.05;5.10;;;7.50;99.90;;;;;;4997256;28;20034;-87
2023/01/31 11:02:25;;;;;;;18.90;4.97;;;7.40;99.90;;;;;;4997361;28;20034;-89
2023/01/31 11:04:56;;;;;;;20.60;5.18;;;7.50;99.90;;;;;;4995016;28;20369;-83
2023/01/31 11:07:22;;;;;;;16.35;5.03;;;7.70;99.90;;;;;;4994530;28;20044;-75
2023/01/31 11:09:53;;;;;;;21.05;6.75;;;7.70;99.90;;;;;;4994734;28;20038;-82
2023/01/31 11:12:38;;;;;;;18.38;4.68;;;8.00;99.90;;;;;;4995226;28;20026;-81
2023/01/31 11:15:07;;;;;;;22.92;5.00;;;7.90;99.90;;;;;;4994933;28;20042;-81
2023/01/31 11:17:35;;;;;;;20.13;5.40;;;7.90;99.90;;;;;;4994382;28;20049;-82
2023/01/31 11:20:05;;;;;;;15.50;5.28;;;8.00;99.90;;;;;;4993138;28;20377;-79
2023/01/31 11:22:33;;;;;;;23.67;6.43;;;7.90;99.90;;;;;;4995171;28;20100;-86
2023/01/31 11:25:02;;;;;;;18.70;5.00;;;7.90;99.90;;;;;;4994854;28;20502;-87
2023/01/31 11:27:35;;;;;;;21.48;4.90;;;8.00;99.90;;;;;;4994380;28;20038;-84
2023/01/31 11:30:03;;;;;;;16.58;4.90;;;8.00;99.90;;;;;;4993115;28;20037;-81
2023/01/31 11:32:30;;;;;;;;;;;8.00;99.90;;;;;;4994298;28;20050;-78
2023/01/31 11:35:00;;;;;;;18.40;5.53;;;7.90;99.90;;;;;;4993435;28;19924;-79
2023/01/31 11:37:28;;;;;;;21.13;5.68;;;7.90;99.90;;;;;;4984006;28;20080;-79
2023/01/31 11:39:56;;;;;;;25.42;6.07;;;7.90;99.90;;;;;;4992207;28;20057;-80
2023/01/31 11:42:22;;;;;;;24.27;5.20;;;8.00;99.90;;;;;;4993513;28;20022;-82
2023/01/31 11:45:01;;;;;;;20.58;5.72;;;8.00;99.90;;;;;;4993827;28;20026;-81
2023/01/31 11:47:45;;;;;;;15.45;5.43;;;8.10;99.90;;;;;;4992331;28;20125;-80
2023/01/31 11:50:25;;;;;;;23.20;5.75;;;7.90;99.90;;;;;;4992509;28;20368;-79
2023/01/31 11:53:03;;;;;;;21.00;6.75;;;7.90;99.90;;;;;;4993330;28;20427;-77
2023/01/31 11:55:39;;;;;;;23.40;6.35;;;8.00;99.90;;;;;;4993333;28;20085;-76
2023/01/31 11:58:32;;;;;;;42.53;17.58;;;8.00;99.90;;;;;;4993968;28;20038;-75
2023/01/31 12:01:05;;;;;;;52.33;24.58;;;8.00;99.90;;;;;;4992787;28;20069;-81
2023/01/31 12:03:31;;;;;;;19.50;6.10;;;7.90;99.90;;;;;;4995458;28;20030;-82
2023/01/31 12:06:24;;;;;;;17.02;6.07;;;8.00;99.90;;;;;;4995512;28;20096;-83
2023/01/31 12:08:53;;;;;;;23.88;6.45;;;7.90;99.90;;;;;;4996155;28;20064;-90
2023/01/31 12:11:19;;;;;;;20.27;6.55;;;8.00;99.90;;;;;;4996078;28;20061;-90
2023/01/31 12:13:48;;;;;;;21.55;6.10;;;8.00;99.90;;;;;;4995536;28;20408;-84
2023/01/31 12:16:20;;;;;;;22.15;6.63;;;8.10;99.90;;;;;;4997111;28;20038;-86
2023/01/31 12:18:50;;;;;;;18.55;6.47;;;8.00;99.90;;;;;;4995021;28;20022;-84
2023/01/31 12:21:26;;;;;;;15.05;4.78;;;8.00;99.90;;;;;;4997066;28;20022;-88
2023/01/31 12:24:26;;;;;;;19.67;5.45;;;8.10;99.90;;;;;;4996791;28;20026;-86
2023/01/31 12:26:58;;;;;;;28.63;6.18;;;8.10;99.90;;;;;;4996503;28;20076;-84
2023/01/31 12:30:03;;;;;;;18.27;5.28;;;8.00;99.90;;;;;;4995606;28;20045;-84
2023/01/31 12:32:53;;;;;;;20.65;6.05;;;8.00;99.90;;;;;;4981822;28;20027;-76
2023/01/31 12:35:48;;;;;;;18.42;5.65;;;8.00;99.90;;;;;;4992697;28;20097;-81
2023/01/31 12:38:39;;;;;;;21.23;5.93;;;8.00;99.90;;;;;;4994650;28;20037;-81
2023/01/31 12:41:18;;;;;;;21.85;5.68;;;7.80;99.90;;;;;;4994352;28;20045;-78
2023/01/31 12:44:05;;;;;;;20.27;6.38;;;7.70;99.90;;;;;;4993904;28;20517;-86
2023/01/31 12:46:55;;;;;;;20.92;5.95;;;7.80;99.90;;;;;;4994325;28;20121;-81
2023/01/31 12:49:39;;;;;;;16.90;5.88;;;7.70;99.90;;;;;;4994168;28;20031;-83
2023/01/31 12:52:21;;;;;;;17.48;6.30;;;7.70;99.90;;;;;;4994946;28;21938;-85
2023/01/31 12:55:06;;;;;;;22.15;6.82;;;7.70;99.90;;;;;;4995150;28;20065;-84
2023/01/31 12:57:41;;;;;;;23.20;7.07;;;7.80;99.90;;;;;;4996143;28;20072;-85
2023/01/31 13:00:37;;;;;;;17.42;6.97;;;7.70;99.90;;;;;;4993655;28;20109;-83
2023/01/31 13:03:22;;;;;;;24.30;7.32;;;7.60;99.90;;;;;;4992295;28;20030;-79
2023/01/31 13:05:58;;;;;;;22.90;7.50;;;7.60;99.90;;;;;;4992719;28;20472;-77
2023/01/31 13:08:27;;;;;;;19.92;7.90;;;7.60;99.90;;;;;;4993012;28;20117;-79
2023/01/31 13:10:58;;;;;;;26.15;7.68;;;7.60;99.90;;;;;;4995094;28;20086;-86
2023/01/31 13:13:36;;;;;;;14.85;7.68;;;7.50;99.90;;;;;;4994330;28;20084;-78